Time;durP1;ratioP1;P1;durP2;ratioP2;P2;SDS_P1;SDS_P2;PMS_P1;PMS_P2;Temp;Humidity;BMP_temperature;BMP_pressure;BME280_temperature;BME280_humidity;BME280_pressure;Samples;Min_cycle;Max_cycle;Signal;HPM_P1;HPM_P2
2023/01/16 00:01:55;;;;;;;3.70;1.30;;;7.10;1.00;;;;;;4971107;28;20838;-75
2023/01/16 00:04:20;;;;;;;3.30;1.90;;;7.10;1.00;;;;;;4970524;28;20625;-74
2023/01/16 00:06:46;;;;;;;2.30;1.20;;;7.10;1.00;;;;;;4970299;28;20983;-74
2023/01/16 00:09:12;;;;;;;4.77;1.60;;;7.00;1.00;;;;;;4973646;28;20217;-75
2023/01/16 00:11:37;;;;;;;3.03;1.30;;;7.00;1.00;;;;;;4969671;28;20214;-75
2023/01/16 00:14:03;;;;;;;1.60;1.30;;;7.00;1.00;;;;;;4970098;28;20204;-74
2023/01/16 00:16:29;;;;;;;1.70;1.13;;;7.00;1.00;;;;;;4967583;28;20448;-74
2023/01/16 00:18:55;;;;;;;3.93;1.30;;;7.00;1.00;;;;;;4968042;28;20669;-74
2023/01/16 00:21:24;;;;;;;2.23;1.40;;;7.00;1.00;;;;;;4970799;28;20194;-74
2023/01/16 00:23:49;;;;;;;1.73;1.00;;;7.00;1.00;;;;;;4969067;28;20459;-75
2023/01/16 00:26:15;;;;;;;3.97;1.60;;;7.00;1.00;;;;;;4971239;28;20447;-74
2023/01/16 00:28:40;;;;;;;4.03;1.53;;;7.00;1.00;;;;;;4968616;28;20208;-75
2023/01/16 00:31:06;;;;;;;4.80;1.20;;;7.00;1.00;;;;;;4968685;28;20261;-75
2023/01/16 00:33:33;;;;;;;3.60;1.43;;;7.00;1.00;;;;;;4970443;28;20216;-75
2023/01/16 00:36:00;;;;;;;4.83;1.57;;;7.00;1.00;;;;;;4970893;28;20461;-75
2023/01/16 00:38:26;;;;;;;5.23;1.30;;;7.10;1.00;;;;;;4962318;28;20450;-75
2023/01/16 00:40:51;;;;;;;4.40;1.30;;;7.00;1.00;;;;;;4986008;28;20447;-75
2023/01/16 00:43:17;;;;;;;6.47;1.60;;;7.00;1.00;;;;;;4968493;28;20188;-75
2023/01/16 00:45:43;;;;;;;2.93;1.20;;;7.00;1.00;;;;;;4961566;28;20605;-76
2023/01/16 00:48:08;;;;;;;2.33;1.43;;;6.90;1.00;;;;;;4975093;28;20193;-75
2023/01/16 00:50:34;;;;;;;5.20;1.20;;;7.00;1.00;;;;;;4975198;28;20210;-75
2023/01/16 00:52:59;;;;;;;4.33;1.60;;;6.90;1.00;;;;;;4969736;28;20188;-76
2023/01/16 00:55:25;;;;;;;3.10;1.30;;;7.00;1.00;;;;;;4968492;28;20183;-77
2023/01/16 00:57:51;;;;;;;6.40;1.77;;;6.90;1.00;;;;;;4969492;28;20564;-74
2023/01/16 01:00:19;;;;;;;5.70;1.47;;;6.90;1.00;;;;;;4975654;28;20214;-75
2023/01/16 01:02:45;;;;;;;2.60;1.40;;;6.90;1.00;;;;;;4969347;28;20271;-75
2023/01/16 01:05:11;;;;;;;4.30;1.73;;;6.90;1.00;;;;;;4968355;28;20439;-74
2023/01/16 01:07:36;;;;;;;2.50;1.30;;;7.00;1.00;;;;;;4969844;28;20471;-75
2023/01/16 01:10:02;;;;;;;7.43;1.40;;;6.90;1.00;;;;;;4971862;28;20599;-74
2023/01/16 01:12:27;;;;;;;2.17;1.20;;;6.90;1.00;;;;;;4968663;28;20192;-74
2023/01/16 01:14:53;;;;;;;5.50;1.57;;;6.90;1.00;;;;;;4965708;28;20239;-74
2023/01/16 01:17:18;;;;;;;6.33;1.20;;;6.90;1.00;;;;;;4963833;28;20203;-74
2023/01/16 01:19:44;;;;;;;2.33;1.00;;;6.90;1.00;;;;;;4974784;28;20215;-75
2023/01/16 01:22:09;;;;;;;5.63;1.40;;;6.90;1.00;;;;;;4968848;28;20666;-75
2023/01/16 01:24:35;;;;;;;3.20;1.13;;;6.90;1.00;;;;;;4985425;28;20226;-75
2023/01/16 01:27:01;;;;;;;2.23;1.40;;;6.90;1.00;;;;;;4971420;28;20887;-74
2023/01/16 01:29:26;;;;;;;3.33;1.50;;;6.90;1.00;;;;;;4983562;28;20207;-75
2023/01/16 01:31:52;;;;;;;1.97;1.40;;;7.00;1.00;;;;;;4971815;28;20188;-74
2023/01/16 01:34:17;;;;;;;3.20;1.27;;;6.90;1.00;;;;;;4969954;28;20211;-74
2023/01/16 01:36:43;;;;;;;2.53;1.00;;;6.90;1.00;;;;;;4969585;28;20217;-75
2023/01/16 01:39:08;;;;;;;3.87;1.40;;;6.80;1.00;;;;;;4971962;28;20695;-75
2023/01/16 01:41:34;;;;;;;1.90;1.23;;;6.80;1.00;;;;;;4974605;28;20183;-76
2023/01/16 01:43:59;;;;;;;7.30;1.40;;;6.80;1.00;;;;;;4969729;28;20192;-75
2023/01/16 01:46:40;;;;;;;3.87;1.40;;;6.80;1.00;;;;;;4968981;28;20207;-75
2023/01/16 01:49:17;;;;;;;2.50;1.30;;;6.90;1.00;;;;;;4968521;28;20285;-75
2023/01/16 01:51:43;;;;;;;4.40;1.47;;;6.90;1.00;;;;;;4970368;28;20430;-75
2023/01/16 01:54:19;;;;;;;3.43;1.30;;;6.90;1.00;;;;;;4974593;28;20474;-74
2023/01/16 01:56:52;;;;;;;5.40;1.20;;;6.90;1.00;;;;;;4968654;28;20433;-75
2023/01/16 01:59:23;;;;;;;7.00;1.47;;;6.80;1.00;;;;;;4969604;28;20645;-75
2023/01/16 02:01:49;;;;;;;2.47;1.30;;;6.80;1.00;;;;;;4970682;28;20967;-75
2023/01/16 02:04:18;;;;;;;4.10;1.60;;;6.90;1.00;;;;;;4969205;28;20446;-74
2023/01/16 02:06:53;;;;;;;2.90;1.20;;;6.90;1.00;;;;;;4970343;28;20960;-75
2023/01/16 02:09:21;;;;;;;3.37;1.30;;;6.90;1.00;;;;;;4971343;28;20976;-74
2023/01/16 02:11:52;;;;;;;3.97;1.20;;;6.80;1.00;;;;;;4973214;28;20439;-76
2023/01/16 02:14:17;;;;;;;1.47;1.10;;;6.80;1.00;;;;;;4967546;28;20466;-75
2023/01/16 02:19:54;;;;;;;3.67;1.30;;;6.70;1.00;;;;;;4979348;28;20218;-75
2023/01/16 02:23:04;;;;;;;1.50;1.20;;;6.80;1.00;;;;;;4973431;28;20449;-75
2023/01/16 02:25:57;;;;;;;6.30;1.77;;;6.80;1.00;;;;;;4977529;28;20433;-75
2023/01/16 02:28:25;;;;;;;5.27;1.10;;;6.90;1.00;;;;;;4972828;28;20431;-75
2023/01/16 02:31:09;;;;;;;3.67;1.40;;;6.90;1.00;;;;;;4976199;28;20968;-75
2023/01/16 02:33:38;;;;;;;3.90;1.20;;;6.90;1.00;;;;;;4972288;28;20470;-76
2023/01/16 02:36:26;;;;;;;3.87;1.40;;;6.80;1.00;;;;;;4972192;28;20447;-77
2023/01/16 02:39:21;;;;;;;2.13;1.50;;;6.80;1.00;;;;;;4982257;28;20462;-75
2023/01/16 02:41:58;;;;;;;5.60;1.30;;;6.90;1.00;;;;;;4986276;28;20450;-75
2023/01/16 02:44:38;;;;;;;3.73;1.20;;;6.90;1.00;;;;;;4973399;28;20453;-75
2023/01/16 02:47:27;;;;;;;6.47;3.03;;;6.90;1.00;;;;;;4984893;28;20450;-75
2023/01/16 02:50:05;;;;;;;5.37;1.30;;;6.90;1.00;;;;;;4975340;28;20462;-75
2023/01/16 02:52:45;;;;;;;3.83;1.23;;;6.90;1.00;;;;;;4973070;28;20804;-77
2023/01/16 02:55:20;;;;;;;4.90;1.30;;;7.00;1.00;;;;;;4972711;28;20501;-75
2023/01/16 02:57:49;;;;;;;4.97;1.27;;;6.90;1.00;;;;;;4969795;28;20450;-75
2023/01/16 03:00:16;;;;;;;2.20;1.10;;;6.90;1.00;;;;;;4972942;28;20459;-75
2023/01/16 03:02:43;;;;;;;3.73;1.20;;;6.90;1.00;;;;;;4972338;28;20435;-75
2023/01/16 03:05:09;;;;;;;4.97;1.70;;;6.80;1.00;;;;;;4977188;28;20457;-74
2023/01/16 03:08:05;;;;;;;3.23;1.30;;;6.80;1.00;;;;;;4972540;28;20439;-75
2023/01/16 03:10:55;;;;;;;2.13;1.10;;;6.90;1.00;;;;;;4971441;28;20752;-75
2023/01/16 03:13:34;;;;;;;3.77;1.40;;;6.90;1.00;;;;;;4972793;28;20525;-75
2023/01/16 03:16:18;;;;;;;2.30;1.23;;;7.00;1.00;;;;;;4964594;28;20541;-75
2023/01/16 03:19:13;;;;;;;4.77;1.30;;;7.00;1.00;;;;;;4969685;28;20463;-75
2023/01/16 03:22:02;;;;;;;1.50;1.00;;;7.00;1.00;;;;;;4972341;28;20438;-75
2023/01/16 03:24:52;;;;;;;4.37;1.30;;;7.10;1.00;;;;;;4971620;28;20883;-75
2023/01/16 03:27:36;;;;;;;2.90;1.47;;;7.00;1.00;;;;;;4971455;28;20427;-74
2023/01/16 03:30:19;;;;;;;3.03;1.40;;;7.00;1.00;;;;;;4972695;28;20457;-75
2023/01/16 03:33:07;;;;;;;1.83;1.17;;;7.00;1.00;;;;;;4971276;28;20472;-75
2023/01/16 03:35:39;;;;;;;2.10;1.00;;;6.90;1.00;;;;;;4969313;28;20481;-76
2023/01/16 03:38:10;;;;;;;1.93;1.20;;;6.90;1.00;;;;;;4971787;28;20959;-75
2023/01/16 03:40:43;;;;;;;1.60;1.20;;;6.80;1.00;;;;;;4970031;28;20439;-75
2023/01/16 03:43:20;;;;;;;2.03;1.10;;;6.80;1.00;;;;;;4972415;28;20439;-75
2023/01/16 03:45:51;;;;;;;2.10;1.30;;;6.80;1.00;;;;;;4970357;28;20975;-76
2023/01/16 03:48:22;;;;;;;2.43;1.23;;;6.80;1.00;;;;;;4976490;28;20449;-73
2023/01/16 03:50:53;;;;;;;3.50;1.10;;;6.80;1.00;;;;;;4972090;28;20435;-75
2023/01/16 03:53:24;;;;;;;4.50;1.50;;;6.80;1.00;;;;;;4975023;28;20466;-75
2023/01/16 03:56:05;;;;;;;1.30;1.20;;;6.80;1.00;;;;;;4970521;28;20435;-75
2023/01/16 03:58:35;;;;;;;3.83;1.20;;;6.80;1.00;;;;;;4970592;28;20505;-75
2023/01/16 04:01:09;;;;;;;2.23;1.30;;;6.80;1.00;;;;;;4976749;28;20945;-73
2023/01/16 04:03:41;;;;;;;2.37;1.47;;;6.70;1.00;;;;;;4970837;28;20987;-75
2023/01/16 04:06:16;;;;;;;5.27;1.10;;;6.70;1.00;;;;;;4969234;28;20447;-75
2023/01/16 04:08:42;;;;;;;2.53;1.20;;;6.70;1.00;;;;;;4976022;28;20472;-75
2023/01/16 04:11:10;;;;;;;2.33;1.27;;;6.70;1.00;;;;;;4971629;28;20458;-75
2023/01/16 04:13:38;;;;;;;4.60;1.27;;;6.70;1.00;;;;;;4967944;28;20482;-75
2023/01/16 04:16:09;;;;;;;3.93;1.57;;;6.70;1.00;;;;;;4971282;28;20443;-75
2023/01/16 04:18:35;;;;;;;4.00;1.23;;;6.70;1.00;;;;;;4975527;28;20533;-75
2023/01/16 04:21:05;;;;;;;1.80;1.20;;;6.70;1.00;;;;;;4970288;28;20522;-74
2023/01/16 04:23:30;;;;;;;5.27;1.20;;;6.70;1.00;;;;;;4970008;28;20992;-74
2023/01/16 04:25:56;;;;;;;3.90;1.60;;;6.70;1.00;;;;;;4969630;28;20432;-75
2023/01/16 04:28:21;;;;;;;3.13;1.40;;;6.70;1.00;;;;;;4969923;28;20203;-76
2023/01/16 04:30:47;;;;;;;1.80;1.00;;;6.70;1.00;;;;;;4972807;28;20407;-75
2023/01/16 04:33:12;;;;;;;3.00;1.40;;;6.70;1.00;;;;;;4971452;28;20298;-74
2023/01/16 04:35:38;;;;;;;1.87;1.10;;;6.70;1.00;;;;;;4969995;28;20191;-76
2023/01/16 04:38:03;;;;;;;1.50;1.10;;;6.70;1.00;;;;;;4969540;28;20187;-74
2023/01/16 04:40:29;;;;;;;4.30;1.40;;;6.70;1.00;;;;;;4968609;28;20589;-75
2023/01/16 04:42:54;;;;;;;3.30;1.33;;;6.70;1.00;;;;;;4969380;28;20184;-75
2023/01/16 04:45:21;;;;;;;3.10;1.30;;;6.70;1.00;;;;;;4969721;28;20531;-75
2023/01/16 04:47:48;;;;;;;2.80;1.20;;;6.60;1.00;;;;;;4968574;28;20206;-75
2023/01/16 04:50:14;;;;;;;5.27;1.43;;;6.60;1.00;;;;;;4970336;28;20461;-74
2023/01/16 04:52:40;;;;;;;5.53;1.40;;;6.60;1.00;;;;;;4969802;28;20806;-75
2023/01/16 04:55:07;;;;;;;5.43;1.20;;;6.60;1.00;;;;;;4969717;28;20203;-75
2023/01/16 04:57:32;;;;;;;2.70;1.50;;;6.60;1.00;;;;;;4970267;28;20435;-74
2023/01/16 04:59:58;;;;;;;2.43;1.43;;;6.60;1.00;;;;;;4970810;28;20807;-75
2023/01/16 05:02:23;;;;;;;4.23;1.40;;;6.60;1.00;;;;;;4975274;28;20547;-75
2023/01/16 05:04:49;;;;;;;2.27;1.23;;;6.60;1.00;;;;;;4973696;28;20662;-76
2023/01/16 05:07:14;;;;;;;3.20;1.60;;;6.60;1.00;;;;;;4970366;28;20191;-75
2023/01/16 05:09:40;;;;;;;3.03;1.30;;;6.60;1.00;;;;;;4968998;28;20323;-75
2023/01/16 05:12:06;;;;;;;3.27;1.23;;;6.60;1.00;;;;;;4968927;28;20708;-76
2023/01/16 05:14:31;;;;;;;1.97;1.20;;;6.60;1.00;;;;;;4968255;28;20286;-74
2023/01/16 05:16:57;;;;;;;2.80;1.17;;;6.60;1.00;;;;;;4969404;28;20194;-74
2023/01/16 05:19:22;;;;;;;3.20;1.30;;;6.60;1.00;;;;;;4973917;28;20238;-74
2023/01/16 05:21:48;;;;;;;3.17;1.30;;;6.60;1.00;;;;;;4974154;28;20215;-75
2023/01/16 05:24:13;;;;;;;1.83;1.33;;;6.60;1.00;;;;;;4977615;28;20188;-75
2023/01/16 05:26:39;;;;;;;4.33;1.40;;;6.50;1.00;;;;;;4973220;28;20199;-75
2023/01/16 05:29:04;;;;;;;4.70;1.57;;;6.40;1.00;;;;;;4971293;28;20656;-75
2023/01/16 05:31:30;;;;;;;5.50;1.70;;;6.30;1.00;;;;;;4971879;28;20192;-74
2023/01/16 05:33:55;;;;;;;3.73;2.13;;;6.20;1.00;;;;;;4972718;28;20682;-75
2023/01/16 05:36:21;;;;;;;4.07;1.97;;;6.10;1.00;;;;;;4971995;28;20199;-75
2023/01/16 05:38:46;;;;;;;2.10;1.80;;;6.10;1.00;;;;;;4971658;28;20282;-75
2023/01/16 05:41:12;;;;;;;4.60;1.53;;;6.00;1.00;;;;;;4971333;28;20179;-75
2023/01/16 05:43:38;;;;;;;3.27;1.50;;;6.00;1.00;;;;;;4973165;28;20196;-75
2023/01/16 05:46:04;;;;;;;1.97;1.30;;;5.90;1.00;;;;;;4974774;28;20962;-76
2023/01/16 05:48:31;;;;;;;4.80;1.70;;;5.90;1.00;;;;;;4980278;28;20234;-76
2023/01/16 05:50:57;;;;;;;2.70;1.77;;;5.90;1.00;;;;;;4974193;28;20192;-76
2023/01/16 05:53:22;;;;;;;2.80;1.20;;;5.80;1.00;;;;;;4973866;28;20528;-75
2023/01/16 05:55:48;;;;;;;1.60;1.10;;;5.80;1.00;;;;;;4974931;28;20206;-77
2023/01/16 05:58:15;;;;;;;4.70;1.50;;;5.80;1.00;;;;;;4973206;28;20271;-75
2023/01/16 06:00:41;;;;;;;2.27;1.20;;;5.80;1.00;;;;;;4977116;28;20268;-75
2023/01/16 06:03:08;;;;;;;3.80;1.50;;;5.80;1.00;;;;;;4976506;28;20968;-75
2023/01/16 06:05:34;;;;;;;2.07;1.63;;;5.90;1.00;;;;;;4976865;28;20489;-76
2023/01/16 06:07:59;;;;;;;9.27;2.27;;;5.90;1.00;;;;;;4974241;28;20446;-76
2023/01/16 06:10:25;;;;;;;5.57;2.03;;;5.90;1.00;;;;;;4977805;28;20454;-76
2023/01/16 06:12:51;;;;;;;6.97;2.17;;;5.90;1.00;;;;;;4972378;28;20215;-75
2023/01/16 06:15:17;;;;;;;5.60;2.30;;;5.90;1.00;;;;;;4973589;28;20459;-75
2023/01/16 06:17:43;;;;;;;3.70;1.77;;;5.90;1.00;;;;;;4972380;28;20187;-77
2023/01/16 06:20:11;;;;;;;2.37;1.50;;;5.80;1.00;;;;;;4973761;28;20307;-75
2023/01/16 06:22:36;;;;;;;2.27;1.47;;;5.80;1.00;;;;;;4973444;28;20184;-76
2023/01/16 06:25:02;;;;;;;5.57;1.50;;;5.80;1.00;;;;;;4975607;28;20496;-75
2023/01/16 06:27:28;;;;;;;2.97;1.57;;;5.70;1.00;;;;;;4975845;28;20188;-75
2023/01/16 06:29:53;;;;;;;7.03;1.43;;;5.70;1.00;;;;;;4971216;28;20466;-76
2023/01/16 06:32:19;;;;;;;4.13;1.67;;;5.70;1.00;;;;;;4974708;28;20191;-76
2023/01/16 06:34:44;;;;;;;2.33;1.40;;;5.70;1.00;;;;;;4971582;28;20208;-75
2023/01/16 06:37:11;;;;;;;2.33;1.20;;;5.70;1.00;;;;;;4974316;28;20195;-76
2023/01/16 06:39:36;;;;;;;1.70;1.20;;;5.70;1.00;;;;;;4972574;28;20204;-74
2023/01/16 06:42:04;;;;;;;1.70;1.30;;;5.70;1.00;;;;;;4973824;28;20959;-74
2023/01/16 06:44:30;;;;;;;3.37;1.30;;;5.70;1.00;;;;;;4971931;28;20188;-75
2023/01/16 06:46:56;;;;;;;4.20;1.53;;;5.70;1.00;;;;;;4987354;28;20475;-75
2023/01/16 06:49:22;;;;;;;2.80;1.20;;;5.80;1.00;;;;;;4972951;28;20462;-75
2023/01/16 06:51:47;;;;;;;7.70;1.27;;;5.80;1.00;;;;;;4971333;28;20442;-75
2023/01/16 06:54:13;;;;;;;1.90;1.20;;;5.80;1.00;;;;;;4974956;28;20218;-74
2023/01/16 06:56:38;;;;;;;2.77;1.30;;;5.70;1.00;;;;;;4971428;28;20180;-74
2023/01/16 06:59:04;;;;;;;2.93;1.53;;;5.80;1.00;;;;;;4993452;23;20226;-75
2023/01/16 07:01:29;;;;;;;6.90;2.33;;;5.70;1.00;;;;;;4972063;28;20650;-77
2023/01/16 07:03:55;;;;;;;6.67;2.33;;;5.70;1.00;;;;;;4972244;28;20196;-77
2023/01/16 07:06:20;;;;;;;2.70;1.30;;;5.70;1.00;;;;;;4972170;28;20244;-78
2023/01/16 07:08:48;;;;;;;2.63;1.43;;;6.00;1.00;;;;;;4970787;28;20332;-76
2023/01/16 07:11:14;;;;;;;3.40;1.43;;;5.70;1.00;;;;;;4970619;28;20332;-77
2023/01/16 07:13:40;;;;;;;2.00;1.40;;;5.70;1.00;;;;;;4971877;28;20960;-75
2023/01/16 07:24:22;;;;;;;3.90;1.40;;;5.60;1.00;;;;;;4972275;28;20438;-77
2023/01/16 07:26:54;;;;;;;2.17;1.70;;;5.60;1.00;;;;;;4968117;28;20450;-78
2023/01/16 07:29:20;;;;;;;3.50;1.40;;;5.50;1.00;;;;;;4955530;28;20457;-76
2023/01/16 07:31:46;;;;;;;1.97;1.33;;;5.60;1.00;;;;;;4965165;28;20487;-77
2023/01/16 07:34:11;;;;;;;3.60;1.70;;;5.60;1.00;;;;;;4970064;28;20265;-77
2023/01/16 07:36:37;;;;;;;2.60;1.40;;;5.60;1.00;;;;;;4966008;28;20797;-77
2023/01/16 07:39:02;;;;;;;1.83;1.43;;;5.60;1.00;;;;;;4966111;28;20258;-77
2023/01/16 07:41:28;;;;;;;5.40;1.30;;;5.60;1.00;;;;;;4971130;28;20207;-78
2023/01/16 07:43:53;;;;;;;3.17;1.60;;;5.60;1.00;;;;;;4969248;28;20203;-78
2023/01/16 07:46:19;;;;;;;3.17;1.50;;;5.60;1.00;;;;;;4971949;28;20192;-77
2023/01/16 07:48:44;;;;;;;3.60;1.57;;;5.70;1.00;;;;;;4971597;28;20180;-77
2023/01/16 07:51:10;;;;;;;3.00;1.30;;;5.70;1.00;;;;;;4971657;28;20183;-77
2023/01/16 07:53:35;;;;;;;4.00;1.57;;;5.70;1.00;;;;;;4970273;28;20211;-77
2023/01/16 07:56:01;;;;;;;5.27;1.60;;;5.70;1.00;;;;;;4970528;28;20667;-77
2023/01/16 07:58:29;;;;;;;3.40;1.60;;;5.70;1.00;;;;;;4971432;28;20188;-79
2023/01/16 08:00:56;;;;;;;4.03;2.00;;;6.10;1.00;;;;;;4970402;28;20432;-78
2023/01/16 08:03:23;;;;;;;1.90;1.40;;;5.70;1.00;;;;;;4964884;28;20805;-78
2023/01/16 08:05:50;;;;;;;3.53;1.30;;;5.80;1.00;;;;;;4969759;28;21134;-78
2023/01/16 08:08:18;;;;;;;2.67;1.40;;;5.80;1.00;;;;;;4965420;28;20798;-78
2023/01/16 08:10:43;;;;;;;1.70;1.30;;;5.80;1.00;;;;;;4969430;28;20550;-75
2023/01/16 08:13:09;;;;;;;6.13;1.50;;;5.80;1.00;;;;;;4970499;28;20518;-78
2023/01/16 08:15:34;;;;;;;3.70;1.33;;;5.90;1.00;;;;;;4969878;28;20547;-77
2023/01/16 08:18:00;;;;;;;3.20;1.93;;;5.90;1.00;;;;;;4969122;28;20247;-78
2023/01/16 08:20:26;;;;;;;3.00;1.37;;;6.00;1.00;;;;;;4969503;28;20214;-78
2023/01/16 08:22:52;;;;;;;3.27;1.40;;;6.10;1.00;;;;;;4967906;28;20183;-78
2023/01/16 08:25:22;;;;;;;3.40;1.77;;;6.10;1.00;;;;;;4968021;28;20187;-78
2023/01/16 08:27:48;;;;;;;1.87;1.40;;;6.20;1.00;;;;;;4965368;28;20530;-78
2023/01/16 08:30:15;;;;;;;3.60;1.60;;;6.30;1.00;;;;;;4967341;28;20546;-77
2023/01/16 08:32:41;;;;;;;2.03;1.50;;;6.50;1.00;;;;;;4970700;28;20188;-77
2023/01/16 08:35:07;;;;;;;3.83;1.60;;;6.30;1.00;;;;;;4963488;28;20467;-77
2023/01/16 08:37:33;;;;;;;2.97;1.50;;;6.20;1.00;;;;;;4970423;28;20782;-77
2023/01/16 08:39:59;;;;;;;2.93;1.70;;;6.30;1.00;;;;;;4971036;28;20548;-77
2023/01/16 08:53:22;;;;;;;4.70;2.07;;;6.30;1.00;;;;;;4964919;28;20462;-76
2023/01/16 08:55:49;;;;;;;2.27;1.67;;;6.30;1.00;;;;;;4970694;28;20428;-78
2023/01/16 08:58:14;;;;;;;2.40;1.60;;;6.20;1.00;;;;;;4971336;28;20398;-78
2023/01/16 09:00:40;;;;;;;2.50;1.87;;;6.20;1.00;;;;;;4959525;28;20463;-77
2023/01/16 09:03:05;;;;;;;5.53;1.67;;;6.20;1.00;;;;;;4961225;28;20192;-78
2023/01/16 09:05:31;;;;;;;1.80;1.33;;;6.20;1.00;;;;;;4968598;28;20595;-78
2023/01/16 09:07:56;;;;;;;2.87;1.60;;;6.20;1.00;;;;;;4967692;28;20196;-78
2023/01/16 09:10:22;;;;;;;3.37;1.70;;;6.20;1.00;;;;;;4967267;28;20625;-78
2023/01/16 09:15:31;;;;;;;3.30;1.60;;;6.30;1.00;;;;;;4970393;28;20211;-78
2023/01/16 09:17:57;;;;;;;6.50;2.13;;;6.30;1.00;;;;;;4965681;28;20430;-78
2023/01/16 09:20:22;;;;;;;2.23;1.47;;;6.30;1.00;;;;;;4967414;28;20206;-77
2023/01/16 09:22:48;;;;;;;3.57;1.50;;;6.40;1.00;;;;;;4965271;28;20757;-78
2023/01/16 09:25:14;;;;;;;3.57;1.60;;;6.30;1.00;;;;;;4968526;28;20214;-79
2023/01/16 09:27:39;;;;;;;3.03;1.77;;;6.50;1.00;;;;;;4971023;28;20192;-77
2023/01/16 09:30:05;;;;;;;5.37;1.83;;;6.50;1.00;;;;;;4970145;28;20219;-77
2023/01/16 09:32:33;;;;;;;4.80;2.33;;;6.60;1.00;;;;;;4971422;28;20191;-78
2023/01/16 09:34:58;;;;;;;1.90;1.50;;;6.60;1.00;;;;;;4969582;28;20512;-79
2023/01/16 09:37:24;;;;;;;3.07;1.70;;;6.60;1.00;;;;;;4971341;28;20905;-77
2023/01/16 09:39:49;;;;;;;3.00;1.60;;;6.60;1.00;;;;;;4968470;28;20282;-77
2023/01/16 09:45:26;;;;;;;4.20;2.13;;;6.70;1.00;;;;;;4970247;28;20190;-78
2023/01/16 09:48:00;;;;;;;2.03;1.50;;;6.70;1.00;;;;;;4968877;28;20443;-78
2023/01/16 09:50:38;;;;;;;2.40;1.50;;;6.70;1.00;;;;;;4970586;28;20486;-78
2023/01/16 09:58:42;;;;;;;2.60;1.80;;;6.80;1.00;;;;;;4969453;28;20948;-78
2023/01/16 10:01:18;;;;;;;2.80;1.73;;;6.70;1.00;;;;;;4969471;28;21280;-78
2023/01/16 10:03:44;;;;;;;2.10;1.90;;;6.70;1.00;;;;;;4956293;28;20428;-79
2023/01/16 10:06:31;;;;;;;5.43;2.40;;;6.70;1.00;;;;;;4969317;28;20766;-80
2023/01/16 10:09:19;;;;;;;5.00;3.03;;;6.70;1.00;;;;;;4969546;28;20203;-78
2023/01/16 10:11:53;;;;;;;5.03;2.67;;;6.70;1.00;;;;;;4970894;28;20859;-78
2023/01/16 10:14:25;;;;;;;4.87;1.80;;;6.70;1.00;;;;;;4973514;28;20459;-78
2023/01/16 10:17:03;;;;;;;3.37;1.60;;;6.70;1.00;;;;;;4966819;28;20934;-77
2023/01/16 10:19:46;;;;;;;2.63;1.50;;;6.70;1.00;;;;;;4969273;28;20469;-77
2023/01/16 10:22:17;;;;;;;1.70;1.40;;;6.60;1.00;;;;;;4968365;28;20477;-77
2023/01/16 10:24:59;;;;;;;1.93;1.40;;;6.60;1.00;;;;;;4970317;28;20433;-77
2023/01/16 10:27:40;;;;;;;2.73;1.40;;;6.50;1.00;;;;;;4969561;28;20431;-77
2023/01/16 10:30:18;;;;;;;2.93;1.40;;;6.50;1.00;;;;;;4971157;28;20462;-78
2023/01/16 10:32:52;;;;;;;8.53;1.40;;;6.30;1.00;;;;;;4968676;28;20431;-78
2023/01/16 10:35:23;;;;;;;3.20;2.07;;;6.30;1.00;;;;;;4955413;28;20844;-77
2023/01/16 10:37:50;;;;;;;1.57;1.33;;;6.20;1.00;;;;;;4974095;28;20429;-78
2023/01/16 10:40:19;;;;;;;6.10;1.50;;;6.20;1.00;;;;;;4971327;28;20489;-77
2023/01/16 10:51:06;;;;;;;5.07;2.67;;;6.40;1.00;;;;;;4973675;28;20785;-77
2023/01/16 10:53:33;;;;;;;7.37;3.30;;;6.30;1.00;;;;;;4971433;28;20725;-78
2023/01/16 10:56:00;;;;;;;5.17;2.50;;;6.50;1.00;;;;;;4971797;28;20949;-78
2023/01/16 10:58:28;;;;;;;7.17;2.57;;;6.40;1.00;;;;;;4973832;28;20438;-78
2023/01/16 11:01:16;;;;;;;3.03;2.20;;;6.50;1.00;;;;;;4973890;28;20742;-78
2023/01/16 11:03:47;;;;;;;2.07;1.67;;;6.60;1.00;;;;;;4972309;28;20881;-78
2023/01/16 11:06:30;;;;;;;3.20;1.63;;;6.60;1.00;;;;;;4972616;28;20439;-79
2023/01/16 11:09:08;;;;;;;2.47;1.80;;;6.60;1.00;;;;;;4965311;28;20455;-77
2023/01/16 11:20:27;;;;;;;3.93;1.70;;;6.50;1.00;;;;;;4969925;28;20439;-78
2023/01/16 11:23:15;;;;;;;2.47;2.07;;;6.50;1.00;;;;;;4971671;28;20964;-78
2023/01/16 11:25:41;;;;;;;3.63;1.97;;;6.60;1.00;;;;;;4969893;28;20837;-78
2023/01/16 11:28:12;;;;;;;3.10;2.20;;;6.60;1.00;;;;;;4972378;28;20431;-79
2023/01/16 11:30:42;;;;;;;1.90;1.40;;;6.70;1.00;;;;;;4972773;28;20191;-78
2023/01/16 11:33:18;;;;;;;2.80;1.90;;;6.80;1.00;;;;;;4972575;28;20976;-78
2023/01/16 11:35:51;;;;;;;7.03;2.90;;;6.90;1.00;;;;;;4972231;28;20996;-79
2023/01/16 11:38:17;;;;;;;5.90;2.47;;;7.00;1.00;;;;;;4971099;28;20485;-79
2023/01/16 11:40:45;;;;;;;7.60;2.77;;;7.10;1.00;;;;;;4970693;28;20455;-78
2023/01/16 11:46:21;;;;;;;5.50;2.83;;;7.20;1.00;;;;;;4971220;28;20508;-79
2023/01/16 11:48:53;;;;;;;5.53;2.83;;;7.20;1.00;;;;;;4973863;28;20948;-79
2023/01/16 11:51:23;;;;;;;9.43;2.70;;;7.30;1.00;;;;;;4972279;28;20427;-79
2023/01/16 11:53:50;;;;;;;4.57;2.20;;;7.30;1.00;;;;;;4963760;28;20478;-78
2023/01/16 11:56:31;;;;;;;1.57;1.20;;;7.40;1.00;;;;;;4968770;28;20490;-78
2023/01/16 11:59:16;;;;;;;5.80;2.10;;;7.50;1.00;;;;;;4969911;28;20876;-75
2023/01/16 12:02:21;;;;;;;5.23;2.60;;;7.70;1.00;;;;;;4972037;28;20856;-78
2023/01/16 12:08:07;;;;;;;5.27;1.70;;;8.10;1.00;;;;;;4969734;28;20434;-78
2023/01/16 12:10:57;;;;;;;1.53;1.20;;;8.40;1.00;;;;;;4972049;28;20451;-78
2023/01/16 12:16:54;;;;;;;2.30;1.30;;;8.40;1.00;;;;;;4964762;28;20414;-78
2023/01/16 12:19:55;;;;;;;2.43;1.70;;;8.50;1.00;;;;;;4971705;28;20527;-78
2023/01/16 12:22:58;;;;;;;2.93;1.70;;;8.60;1.00;;;;;;4971890;28;20425;-78
2023/01/16 12:25:27;;;;;;;2.83;1.50;;;8.60;1.00;;;;;;4964836;28;20530;-78
2023/01/16 12:28:30;;;;;;;1.67;1.10;;;8.70;1.00;;;;;;4970507;28;20424;-78
2023/01/16 12:31:25;;;;;;;2.13;1.13;;;8.70;1.00;;;;;;4968181;28;20426;-78
2023/01/16 12:34:09;;;;;;;1.83;1.30;;;8.80;1.00;;;;;;4967548;28;20969;-78
2023/01/16 12:36:40;;;;;;;1.67;1.23;;;9.10;1.00;;;;;;4959250;28;20432;-78
2023/01/16 12:39:20;;;;;;;1.30;1.10;;;9.40;1.00;;;;;;4961560;28;20439;-79
2023/01/16 12:45:01;;;;;;;2.30;1.10;;;9.00;1.00;;;;;;4965277;28;20418;-76
2023/01/16 12:48:00;;;;;;;1.70;1.10;;;8.60;1.00;;;;;;4964537;28;20426;-77
2023/01/16 12:51:06;;;;;;;1.70;1.40;;;8.40;1.00;;;;;;4963926;28;20466;-78
2023/01/16 12:53:51;;;;;;;2.13;1.20;;;8.30;1.00;;;;;;4971140;28;20792;-78
2023/01/16 12:56:50;;;;;;;1.47;1.10;;;8.30;1.00;;;;;;4971019;28;20415;-78
2023/01/16 12:59:21;;;;;;;1.40;1.10;;;8.40;1.00;;;;;;5020057;23;21179;-76
2023/01/16 13:01:53;;;;;;;1.43;1.33;;;8.40;1.00;;;;;;4961914;28;20446;-77
2023/01/16 13:04:28;;;;;;;1.90;1.40;;;8.30;1.00;;;;;;4960667;28;20424;-77
2023/01/16 13:06:57;;;;;;;1.33;1.13;;;8.30;1.00;;;;;;4964756;28;20456;-76
2023/01/16 13:09:44;;;;;;;2.40;1.30;;;8.20;1.00;;;;;;4952235;28;20490;-76
2023/01/16 13:15:21;;;;;;;1.80;1.60;;;8.20;1.00;;;;;;4951900;28;20592;-77
2023/01/16 13:17:51;;;;;;;1.70;1.20;;;8.20;1.00;;;;;;4947811;28;20428;-77
2023/01/16 13:20:19;;;;;;;1.30;1.20;;;8.10;1.00;;;;;;4952049;28;20451;-77
2023/01/16 13:22:52;;;;;;;1.63;1.50;;;8.00;1.00;;;;;;4952384;28;20827;-76
2023/01/16 13:25:29;;;;;;;3.17;1.30;;;8.00;1.00;;;;;;4951755;28;20463;-76
2023/01/16 13:28:22;;;;;;;1.20;1.00;;;8.00;1.00;;;;;;4952976;28;20439;-77
2023/01/16 13:30:56;;;;;;;1.47;1.27;;;7.90;1.00;;;;;;4953453;28;20467;-77
2023/01/16 13:33:26;;;;;;;1.43;1.20;;;7.90;1.00;;;;;;4952157;28;20764;-76
2023/01/16 13:36:40;;;;;;;1.20;1.10;;;7.90;1.00;;;;;;4952118;28;20436;-76
2023/01/16 13:39:24;;;;;;;1.60;1.33;;;7.90;1.00;;;;;;4935244;29;20431;-76
2023/01/16 13:41:53;;;;;;;2.03;1.60;;;7.80;1.00;;;;;;4951887;28;20985;-77
2023/01/16 13:47:14;;;;;;;1.70;1.43;;;7.80;1.00;;;;;;4952084;29;20435;-76
2023/01/16 13:49:40;;;;;;;2.13;1.60;;;7.90;1.00;;;;;;4952010;28;20448;-76
2023/01/16 13:52:25;;;;;;;2.07;1.40;;;7.90;1.00;;;;;;4950208;28;20455;-77
2023/01/16 13:54:56;;;;;;;2.40;1.70;;;7.80;1.00;;;;;;4949304;28;20474;-76
2023/01/16 13:57:24;;;;;;;1.97;1.60;;;7.90;1.00;;;;;;4942584;28;20915;-74
2023/01/16 13:59:57;;;;;;;2.07;1.40;;;7.90;1.00;;;;;;4936593;29;20464;-73
2023/01/16 14:02:28;;;;;;;1.50;1.10;;;7.90;1.00;;;;;;4947065;28;20444;-74
2023/01/16 14:05:40;;;;;;;1.47;1.17;;;7.90;1.00;;;;;;4952520;28;20985;-73
2023/01/16 14:11:21;;;;;;;1.67;1.07;;;7.90;1.00;;;;;;4955474;29;20830;-74
2023/01/16 14:14:16;;;;;;;1.17;1.07;;;7.90;1.00;;;;;;4954480;29;20483;-74
2023/01/16 14:16:42;;;;;;;1.87;1.30;;;8.00;1.00;;;;;;4947812;28;20444;-75
2023/01/16 14:19:14;;;;;;;2.33;1.23;;;8.00;1.00;;;;;;4944698;28;20450;-74
2023/01/16 14:24:00;;;;;;;1.20;1.10;;;8.00;1.00;;;;;;4948775;28;20179;-75
2023/01/16 14:24:26;;;;;;;1.30;1.20;;;8.10;1.00;;;;;;4949303;29;20427;-75
2023/01/16 14:26:59;;;;;;;1.10;1.00;;;7.90;1.00;;;;;;4944810;28;20798;-74
2023/01/16 14:29:35;;;;;;;1.30;1.20;;;8.30;1.00;;;;;;4948649;28;20208;-74
2023/01/16 14:32:15;;;;;;;1.10;1.00;;;8.20;1.00;;;;;;4945164;29;20526;-74
2023/01/16 14:34:50;;;;;;;1.10;1.00;;;8.20;1.00;;;;;;4944485;29;20463;-75
2023/01/16 14:37:22;;;;;;;1.43;0.93;;;8.10;1.00;;;;;;4945608;28;20487;-75
2023/01/16 14:39:55;;;;;;;2.23;1.10;;;8.10;1.00;;;;;;4942735;29;20506;-73
2023/01/16 14:57:12;;;;;;;2.53;1.70;;;8.00;1.00;;;;;;4942050;29;20415;-74